createdAt,value
2022-10-19T00:01:24.015Z,24.63
2022-10-19T00:07:28.702Z,20.73
2022-10-19T00:10:32.244Z,20.83
2022-10-19T00:13:35.305Z,29.45
2022-10-19T00:16:38.434Z,19.90
2022-10-19T00:19:40.723Z,26.20
2022-10-19T00:22:43.226Z,21.37
2022-10-19T00:25:55.935Z,21.92
2022-10-19T00:28:58.695Z,19.50
2022-10-19T00:32:00.910Z,20.73
2022-10-19T00:35:03.825Z,19.05
2022-10-19T00:38:06.695Z,25.05
2022-10-19T00:41:09.444Z,23.42
2022-10-19T00:44:11.574Z,21.08
2022-10-19T00:47:14.803Z,20.90
2022-10-19T00:50:17.381Z,20.85
2022-10-19T00:53:20.564Z,24.08
2022-10-19T00:56:23.465Z,29.15
2022-10-19T00:59:28.467Z,24.10
2022-10-19T01:02:30.799Z,22.37
2022-10-19T01:05:35.201Z,22.37
2022-10-19T01:08:37.384Z,19.42
2022-10-19T01:11:57.307Z,20.15
2022-10-19T01:15:41.050Z,19.48
2022-10-19T01:19:00.290Z,25.77
2022-10-19T01:22:08.090Z,19.45
2022-10-19T01:25:54.232Z,32.00
2022-10-19T01:29:08.425Z,22.50
2022-10-19T01:32:28.214Z,19.70
2022-10-19T01:36:08.958Z,18.20
2022-10-19T01:39:35.113Z,22.65
2022-10-19T01:42:56.465Z,22.23
2022-10-19T01:46:08.936Z,20.00
2022-10-19T01:49:22.705Z,21.15
2022-10-19T01:52:26.996Z,22.85
2022-10-19T01:55:30.565Z,21.17
2022-10-19T01:58:37.203Z,19.20
2022-10-19T02:01:43.937Z,22.52
2022-10-19T02:04:49.838Z,24.37
2022-10-19T02:07:58.074Z,22.55
2022-10-19T02:11:01.780Z,29.98
2022-10-19T02:14:11.691Z,23.35
2022-10-19T02:17:22.344Z,25.12
2022-10-19T02:20:24.777Z,21.37
2022-10-19T02:23:27.947Z,19.25
2022-10-19T02:26:30.458Z,20.67
2022-10-19T02:29:34.695Z,23.83
2022-10-19T02:35:39.721Z,19.30
2022-10-19T02:38:42.070Z,18.62
2022-10-19T02:41:47.799Z,19.15
2022-10-19T02:45:10.288Z,21.12
2022-10-19T02:48:19.977Z,25.65
2022-10-19T02:51:31.239Z,24.27
2022-10-19T02:54:34.215Z,22.50
2022-10-19T02:57:37.360Z,23.23
2022-10-19T03:00:40.070Z,18.08
2022-10-19T03:03:42.331Z,19.62
2022-10-19T03:06:47.141Z,21.85
2022-10-19T03:09:50.029Z,19.87
2022-10-19T03:12:52.569Z,21.17
2022-10-19T03:15:54.764Z,21.33
2022-10-19T03:18:57.232Z,16.60
2022-10-19T03:21:59.481Z,19.62
2022-10-19T03:25:01.975Z,18.87
2022-10-19T03:28:04.198Z,19.00
2022-10-19T03:31:06.760Z,24.08
2022-10-19T03:34:08.968Z,18.98
2022-10-19T03:37:13.361Z,17.20
2022-10-19T03:40:16.160Z,19.50
2022-10-19T03:43:18.633Z,21.75
2022-10-19T03:46:21.699Z,17.52
2022-10-19T03:49:24.544Z,19.27
2022-10-19T03:52:26.784Z,19.45
2022-10-19T03:55:30.266Z,23.98
2022-10-19T03:58:34.649Z,18.35
2022-10-19T04:01:41.162Z,19.40
2022-10-19T04:04:43.673Z,18.55
2022-10-19T04:07:45.923Z,21.02
2022-10-19T04:10:48.388Z,17.83
2022-10-19T04:13:52.305Z,21.75
2022-10-19T04:16:55.096Z,20.88
2022-10-19T04:19:57.362Z,21.70
2022-10-19T04:22:59.946Z,21.15
2022-10-19T04:26:06.481Z,22.50
2022-10-19T04:29:12.277Z,17.90
2022-10-19T04:32:14.548Z,18.45
2022-10-19T04:35:17.173Z,20.58
2022-10-19T04:38:19.359Z,15.10
2022-10-19T04:41:22.542Z,18.05
2022-10-19T04:44:24.837Z,19.50
2022-10-19T04:47:29.667Z,17.40
2022-10-19T04:50:31.905Z,19.60
2022-10-19T04:53:35.433Z,19.60
2022-10-19T04:56:39.595Z,20.42
2022-10-19T04:59:42.143Z,18.98
2022-10-19T05:02:45.681Z,22.75
2022-10-19T05:05:48.226Z,23.20
2022-10-19T05:08:51.088Z,17.92
2022-10-19T05:11:53.584Z,16.23
2022-10-19T05:14:55.827Z,24.25
2022-10-19T05:17:58.377Z,20.42
2022-10-19T05:21:11.790Z,22.37
2022-10-19T05:24:14.371Z,20.33
2022-10-19T05:27:16.587Z,18.10
2022-10-19T05:30:21.914Z,19.55
2022-10-19T05:33:24.244Z,16.48
2022-10-19T05:36:34.999Z,31.15
2022-10-19T05:39:37.352Z,28.48
2022-10-19T05:42:39.935Z,17.85
2022-10-19T05:45:42.112Z,18.05
2022-10-19T05:48:46.476Z,16.35
2022-10-19T05:51:49.314Z,18.73
2022-10-19T05:54:51.859Z,22.00
2022-10-19T05:57:54.063Z,21.45
2022-10-19T06:00:59.048Z,20.80
2022-10-19T06:04:03.203Z,20.08
2022-10-19T06:07:05.808Z,23.73
2022-10-19T06:10:10.232Z,13.88
2022-10-19T06:13:14.022Z,18.05
2022-10-19T06:16:18.353Z,14.55
2022-10-19T06:19:23.404Z,13.95
2022-10-19T06:22:26.024Z,14.18
2022-10-19T06:25:30.153Z,14.27
2022-10-19T06:28:33.154Z,16.58
2022-10-19T06:31:36.535Z,14.52
2022-10-19T06:34:39.135Z,16.42
2022-10-19T06:37:41.451Z,18.30
2022-10-19T06:40:45.047Z,16.52
2022-10-19T06:43:56.703Z,16.02
2022-10-19T06:46:59.586Z,14.87
2022-10-19T06:50:03.023Z,14.60
2022-10-19T06:53:05.550Z,14.80
2022-10-19T06:56:08.089Z,15.02
2022-10-19T06:59:13.024Z,14.95
2022-10-19T07:02:15.422Z,12.00
2022-10-19T07:05:18.103Z,20.40
2022-10-19T07:08:20.353Z,14.55
2022-10-19T07:11:22.859Z,14.48
2022-10-19T07:14:25.450Z,10.57
2022-10-19T07:17:27.997Z,13.70
2022-10-19T07:20:30.190Z,9.73
2022-10-19T07:23:34.132Z,13.82
2022-10-19T07:26:36.544Z,13.20
2022-10-19T07:29:40.048Z,13.25
2022-10-19T07:32:46.773Z,12.32
2022-10-19T07:35:49.750Z,13.00
2022-10-19T07:38:52.544Z,11.73
2022-10-19T07:41:55.008Z,13.23
2022-10-19T07:44:57.285Z,14.75
2022-10-19T07:48:00.218Z,12.18
2022-10-19T07:51:05.602Z,10.37
2022-10-19T07:54:08.596Z,22.02
2022-10-19T07:57:12.254Z,12.15
2022-10-19T08:00:16.183Z,17.12
2022-10-19T08:03:57.552Z,10.95
2022-10-19T08:06:43.030Z,12.30
2022-10-19T08:09:53.303Z,7.72
2022-10-19T08:12:56.354Z,10.00
2022-10-19T08:15:59.019Z,12.77
2022-10-19T08:19:07.243Z,9.10
2022-10-19T08:22:10.305Z,8.80
2022-10-19T08:28:15.285Z,9.07
2022-10-19T08:31:22.518Z,9.80
2022-10-19T08:34:25.464Z,9.13
2022-10-19T08:37:40.789Z,11.75
2022-10-19T08:40:47.479Z,8.55
2022-10-19T08:47:34.082Z,12.75
2022-10-19T08:50:39.510Z,6.78
2022-10-19T08:53:58.569Z,14.73
2022-10-19T08:57:08.710Z,10.90
2022-10-19T09:00:20.195Z,8.20
2022-10-19T09:03:55.503Z,8.48
2022-10-19T09:07:23.633Z,9.70
2022-10-19T09:10:30.050Z,6.45
2022-10-19T09:14:03.824Z,5.68
2022-10-19T09:17:14.124Z,9.45
2022-10-19T09:20:25.282Z,6.60
2022-10-19T09:23:51.206Z,6.97
2022-10-19T09:26:57.354Z,8.88
2022-10-19T09:30:04.007Z,5.05
2022-10-19T09:33:16.166Z,12.63
2022-10-19T09:36:27.607Z,5.95
2022-10-19T09:39:35.938Z,9.57
2022-10-19T09:42:38.902Z,7.28
2022-10-19T09:46:11.579Z,8.48
2022-10-19T09:49:16.181Z,12.25
2022-10-19T09:52:26.073Z,8.15
2022-10-19T09:55:39.107Z,7.45
2022-10-19T09:58:48.191Z,5.85
2022-10-19T10:02:04.856Z,6.90
2022-10-19T10:05:13.927Z,6.22
2022-10-19T10:08:20.903Z,5.45
2022-10-19T10:11:24.953Z,4.95
2022-10-19T10:14:30.409Z,5.47
2022-10-19T10:17:33.141Z,4.65
2022-10-19T10:20:35.757Z,3.50
2022-10-19T10:23:38.299Z,4.10
2022-10-19T10:26:46.930Z,4.80
2022-10-19T10:33:08.124Z,3.42
2022-10-19T10:36:25.711Z,9.85
2022-10-19T10:39:29.352Z,6.07
2022-10-19T10:42:41.688Z,4.62
2022-10-19T10:45:58.437Z,1.70
2022-10-19T10:49:16.727Z,1.75
2022-10-19T10:52:20.084Z,1.52
2022-10-19T10:55:22.821Z,1.42
2022-10-19T10:58:43.331Z,1.50
2022-10-19T11:02:04.536Z,2.58
2022-10-19T11:05:31.030Z,5.05
2022-10-19T11:08:44.447Z,3.40
2022-10-19T11:11:49.642Z,2.10
2022-10-19T11:15:01.318Z,2.55
2022-10-19T11:18:30.405Z,4.40
2022-10-19T11:21:44.324Z,3.35
2022-10-19T11:25:11.452Z,7.37
2022-10-19T11:28:24.646Z,3.85
2022-10-19T11:31:33.061Z,8.35
2022-10-19T11:34:37.008Z,4.18
2022-10-19T11:38:22.103Z,5.60
2022-10-19T11:41:32.635Z,2.10
2022-10-19T11:44:44.026Z,8.48
2022-10-19T11:48:14.448Z,7.90
2022-10-19T11:51:32.466Z,1.87
2022-10-19T11:54:53.507Z,4.80
2022-10-19T11:58:20.144Z,1.20
2022-10-19T12:01:44.837Z,5.07
2022-10-19T12:04:50.538Z,3.28
2022-10-19T12:08:14.380Z,2.60
2022-10-19T12:11:45.044Z,3.65
2022-10-19T12:14:53.463Z,1.83
2022-10-19T12:18:02.487Z,1.95
2022-10-19T12:21:13.041Z,4.03
2022-10-19T12:24:21.242Z,7.22
2022-10-19T12:27:39.359Z,3.10
2022-10-19T12:30:42.659Z,4.47
2022-10-19T12:34:08.586Z,1.87
2022-10-19T12:37:34.294Z,4.28
2022-10-19T12:41:05.131Z,4.12
2022-10-19T12:44:35.803Z,2.87
2022-10-19T12:47:38.125Z,3.85
2022-10-19T12:50:50.097Z,9.00
2022-10-19T12:54:09.507Z,11.65
2022-10-19T12:57:46.187Z,5.00
2022-10-19T13:01:00.600Z,2.92
2022-10-19T13:04:15.307Z,2.47
2022-10-19T13:07:18.376Z,1.35
2022-10-19T13:13:51.013Z,2.75
2022-10-19T13:16:59.287Z,2.75
2022-10-19T13:20:14.039Z,3.72
2022-10-19T13:23:17.651Z,6.65
2022-10-19T13:26:34.670Z,3.45
2022-10-19T13:29:37.154Z,3.80
2022-10-19T13:32:45.175Z,3.67
2022-10-19T13:35:47.732Z,1.27
2022-10-19T13:38:55.919Z,2.15
2022-10-19T13:41:58.804Z,2.70
2022-10-19T13:45:01.226Z,7.80
2022-10-19T13:48:24.181Z,4.33
2022-10-19T13:51:32.593Z,4.90
2022-10-19T13:54:47.343Z,7.20
2022-10-19T13:58:13.969Z,4.55
2022-10-19T14:01:40.274Z,6.62
2022-10-19T14:05:15.216Z,5.40
2022-10-19T14:08:53.611Z,5.80
2022-10-19T14:12:08.205Z,6.45
2022-10-19T14:15:27.995Z,9.88
2022-10-19T14:18:34.176Z,7.78
2022-10-19T14:21:43.700Z,5.40
2022-10-19T14:24:46.268Z,4.37
2022-10-19T14:28:00.292Z,8.85
2022-10-19T14:31:09.007Z,2.80
2022-10-19T14:34:14.145Z,8.35
2022-10-19T14:37:18.209Z,8.02
2022-10-19T14:40:26.744Z,8.98
2022-10-19T14:43:33.003Z,5.10
2022-10-19T14:46:35.340Z,5.20
2022-10-19T14:49:37.919Z,6.32
2022-10-19T14:52:40.586Z,6.37
2022-10-19T14:55:43.673Z,7.25
2022-10-19T14:58:57.937Z,7.03
2022-10-19T15:02:04.266Z,5.35
2022-10-19T15:05:24.686Z,6.00
2022-10-19T15:08:43.790Z,6.45
2022-10-19T15:11:47.038Z,14.90
2022-10-19T15:14:49.995Z,4.03
2022-10-19T15:17:56.728Z,3.40
2022-10-19T15:21:20.107Z,12.18
2022-10-19T15:24:27.848Z,5.68
2022-10-19T15:27:41.815Z,4.40
2022-10-19T15:30:44.161Z,3.78
2022-10-19T15:34:00.618Z,9.30
2022-10-19T15:37:03.524Z,15.15
2022-10-19T15:40:23.086Z,4.62
2022-10-19T15:43:32.993Z,4.80
2022-10-19T15:46:56.196Z,4.78
2022-10-19T15:50:02.452Z,5.07
2022-10-19T15:53:04.975Z,5.37
2022-10-19T15:56:07.262Z,6.05
2022-10-19T15:59:16.067Z,5.45
2022-10-19T16:02:18.496Z,11.80
2022-10-19T16:05:21.217Z,8.30
2022-10-19T16:08:23.638Z,6.22
2022-10-19T16:11:27.385Z,6.93
2022-10-19T16:14:31.952Z,4.82
2022-10-19T16:17:38.516Z,4.50
2022-10-19T16:20:41.964Z,6.25
2022-10-19T16:23:44.501Z,6.00
2022-10-19T16:26:46.746Z,5.45
2022-10-19T16:29:49.369Z,8.68
2022-10-19T16:32:51.621Z,6.45
2022-10-19T16:35:54.226Z,4.85
2022-10-19T16:38:56.505Z,5.22
2022-10-19T16:41:59.027Z,5.55
2022-10-19T16:45:01.528Z,3.42
2022-10-19T16:48:04.211Z,4.05
2022-10-19T16:51:06.695Z,3.78
2022-10-19T16:54:11.395Z,4.75
2022-10-19T16:57:13.773Z,3.30
2022-10-19T17:00:16.283Z,4.50
2022-10-19T17:03:18.657Z,3.92
2022-10-19T17:06:22.053Z,6.70
2022-10-19T17:12:47.563Z,9.48
2022-10-19T17:15:49.845Z,4.62
2022-10-19T17:18:55.849Z,5.50
2022-10-19T17:21:59.129Z,4.25
2022-10-19T17:25:01.773Z,11.35
2022-10-19T17:28:03.995Z,5.70
2022-10-19T17:31:09.176Z,6.43
2022-10-19T17:34:11.726Z,5.35
2022-10-19T17:37:14.268Z,7.00
2022-10-19T17:40:16.648Z,3.53
2022-10-19T17:43:19.372Z,5.95
2022-10-19T17:46:28.057Z,4.57
2022-10-19T17:49:30.644Z,7.03
2022-10-19T17:52:32.882Z,7.28
2022-10-19T17:55:37.051Z,8.65
2022-10-19T18:01:42.865Z,5.35
2022-10-19T18:04:45.347Z,7.30
2022-10-19T18:07:49.214Z,8.85
2022-10-19T18:11:02.856Z,4.25
2022-10-19T18:14:08.232Z,6.83
2022-10-19T18:17:13.752Z,5.25
2022-10-19T18:20:16.031Z,7.72
2022-10-19T18:23:18.923Z,10.55
2022-10-19T18:26:23.043Z,6.15
2022-10-19T18:29:27.030Z,8.60
2022-10-19T18:32:29.332Z,4.87
2022-10-19T18:35:37.229Z,4.43
2022-10-19T18:38:40.170Z,3.72
2022-10-19T18:41:43.074Z,6.68
2022-10-19T18:44:47.158Z,5.25
2022-10-19T18:47:49.853Z,6.30
2022-10-19T18:50:52.196Z,4.70
2022-10-19T18:53:55.563Z,9.23
2022-10-19T18:56:57.982Z,8.97
2022-10-19T19:00:00.613Z,12.02
2022-10-19T19:03:02.839Z,5.70
2022-10-19T19:06:07.985Z,7.22
2022-10-19T19:09:12.126Z,8.57
2022-10-19T19:12:15.895Z,5.78
2022-10-19T19:15:18.518Z,4.85
2022-10-19T19:18:21.226Z,6.62
2022-10-19T19:21:28.949Z,6.50
2022-10-19T19:24:32.821Z,5.87
2022-10-19T19:27:35.085Z,7.70
2022-10-19T19:30:45.526Z,5.00
2022-10-19T19:33:48.129Z,7.18
2022-10-19T19:36:50.692Z,8.07
2022-10-19T19:39:53.063Z,7.55
2022-10-19T19:42:55.597Z,6.15
2022-10-19T19:46:04.751Z,16.98
2022-10-19T19:49:10.526Z,11.30
2022-10-19T19:52:13.117Z,7.32
2022-10-19T19:55:15.623Z,5.95
2022-10-19T19:58:18.920Z,4.93
2022-10-19T20:01:22.350Z,6.70
2022-10-19T20:04:24.918Z,6.00
2022-10-19T20:07:27.322Z,4.57
2022-10-19T20:10:29.871Z,4.20
2022-10-19T20:13:32.359Z,4.43
2022-10-19T20:16:35.592Z,4.00
2022-10-19T20:19:37.963Z,4.70
2022-10-19T20:22:44.899Z,5.22
2022-10-19T20:25:47.149Z,3.97
2022-10-19T20:28:50.036Z,3.50
2022-10-19T20:31:53.995Z,6.93
2022-10-19T20:34:56.537Z,5.28
2022-10-19T20:37:58.807Z,5.75
2022-10-19T20:41:08.069Z,5.40
2022-10-19T20:44:10.665Z,9.60
2022-10-19T20:47:13.183Z,5.22
2022-10-19T20:50:17.067Z,4.70
2022-10-19T20:53:21.845Z,3.17
2022-10-19T20:56:27.145Z,5.78
2022-10-19T20:59:31.487Z,3.40
2022-10-19T21:05:38.121Z,4.45
2022-10-19T21:08:40.462Z,4.50
2022-10-19T21:11:45.003Z,9.20
2022-10-19T21:14:49.003Z,5.32
2022-10-19T21:17:51.499Z,3.20
2022-10-19T21:20:53.753Z,3.15
2022-10-19T21:24:00.207Z,7.50
2022-10-19T21:27:07.427Z,10.13
2022-10-19T21:30:10.425Z,3.15
2022-10-19T21:33:12.691Z,4.32
2022-10-19T21:36:15.820Z,6.87
2022-10-19T21:39:18.455Z,4.60
2022-10-19T21:42:21.003Z,3.92
2022-10-19T21:45:30.196Z,6.03
2022-10-19T21:48:34.424Z,5.22
2022-10-19T21:51:46.180Z,4.50
2022-10-19T21:54:48.684Z,8.70
2022-10-19T21:57:50.896Z,9.52
2022-10-19T22:00:53.398Z,9.88
2022-10-19T22:03:57.514Z,6.57
2022-10-19T22:07:01.332Z,5.97
2022-10-19T22:10:04.386Z,4.20
2022-10-19T22:13:06.631Z,5.57
2022-10-19T22:16:12.766Z,4.85
2022-10-19T22:19:15.009Z,5.32
2022-10-19T22:22:17.569Z,4.25
2022-10-19T22:25:19.831Z,6.53
2022-10-19T22:28:22.335Z,4.10
2022-10-19T22:31:25.875Z,5.35
2022-10-19T22:34:28.367Z,3.50
2022-10-19T22:37:30.622Z,9.07
2022-10-19T22:40:33.140Z,4.72
2022-10-19T22:43:35.864Z,6.53
2022-10-19T22:46:38.458Z,3.97
2022-10-19T22:49:40.721Z,5.05
2022-10-19T22:52:43.295Z,9.30
2022-10-19T22:55:45.793Z,3.50
2022-10-19T22:58:48.579Z,6.10
2022-10-19T23:01:50.938Z,5.12
2022-10-19T23:04:53.538Z,3.62
2022-10-19T23:07:55.799Z,4.40
2022-10-19T23:10:58.427Z,4.37
2022-10-19T23:14:00.663Z,4.47
2022-10-19T23:17:03.306Z,4.87
2022-10-19T23:20:06.073Z,3.12
2022-10-19T23:23:09.694Z,5.80
2022-10-19T23:26:21.953Z,7.82
2022-10-19T23:29:24.553Z,5.75
2022-10-19T23:32:26.852Z,3.65
2022-10-19T23:35:29.412Z,4.93
2022-10-19T23:38:31.713Z,5.60
2022-10-19T23:41:34.457Z,5.15
2022-10-19T23:44:37.031Z,5.70
2022-10-19T23:47:39.516Z,10.88
2022-10-19T23:50:41.787Z,5.28
2022-10-19T23:53:46.869Z,4.75
2022-10-19T23:56:49.076Z,5.87
2022-10-19T23:59:51.673Z,3.78
